createdAt,value
2022-10-05T00:01:56.935Z,83.68
2022-10-05T00:04:24.943Z,83.96
2022-10-05T00:07:04.521Z,83.91
2022-10-05T00:09:32.842Z,84.67
2022-10-05T00:12:02.850Z,84.25
2022-10-05T00:14:32.884Z,84.24
2022-10-05T00:17:01.419Z,84.88
2022-10-05T00:19:33.124Z,85.88
2022-10-05T00:22:11.948Z,85.58
2022-10-05T00:24:40.419Z,86.59
2022-10-05T00:27:36.346Z,86.77
2022-10-05T00:30:17.932Z,88.19
2022-10-05T00:32:46.111Z,87.67
2022-10-05T00:35:14.389Z,88.30
2022-10-05T00:37:43.862Z,88.22
2022-10-05T00:40:45.364Z,89.11
2022-10-05T00:43:19.040Z,88.42
2022-10-05T00:45:50.554Z,88.72
2022-10-05T00:48:31.152Z,88.56
2022-10-05T00:51:17.358Z,89.06
2022-10-05T00:54:07.115Z,88.86
2022-10-05T00:56:35.411Z,89.63
2022-10-05T00:59:11.849Z,89.84
2022-10-05T01:02:03.102Z,89.76
2022-10-05T01:04:59.720Z,90.42
2022-10-05T01:07:51.022Z,90.58
2022-10-05T01:10:32.937Z,90.61
2022-10-05T01:13:04.053Z,90.94
2022-10-05T01:15:43.081Z,90.04
2022-10-05T01:18:22.440Z,91.47
2022-10-05T01:20:56.548Z,91.58
2022-10-05T01:23:53.576Z,91.19
2022-10-05T01:26:49.810Z,91.17
2022-10-05T01:29:24.557Z,92.05
2022-10-05T01:32:29.492Z,91.43
2022-10-05T01:35:03.188Z,92.01
2022-10-05T01:37:44.861Z,91.65
2022-10-05T01:40:48.972Z,91.28
2022-10-05T01:43:36.662Z,91.76
2022-10-05T01:46:23.745Z,91.32
2022-10-05T01:48:54.078Z,91.28
2022-10-05T01:51:43.835Z,91.28
2022-10-05T01:54:27.312Z,91.62
2022-10-05T01:57:21.664Z,91.52
2022-10-05T02:00:11.823Z,91.60
2022-10-05T02:02:49.152Z,91.72
2022-10-05T02:05:26.462Z,91.51
2022-10-05T02:08:00.876Z,91.69
2022-10-05T02:10:38.783Z,91.85
2022-10-05T02:13:15.608Z,90.77
2022-10-05T02:15:50.169Z,91.86
2022-10-05T02:18:25.609Z,91.96
2022-10-05T02:20:53.460Z,91.91
2022-10-05T02:23:22.432Z,91.85
2022-10-05T02:25:51.512Z,91.83
2022-10-05T02:28:41.626Z,91.24
2022-10-05T02:31:11.767Z,90.95
2022-10-05T02:33:39.545Z,91.00
2022-10-05T02:36:16.078Z,91.27
2022-10-05T02:38:51.692Z,91.15
2022-10-05T02:41:32.184Z,91.34
2022-10-05T02:44:26.851Z,90.83
2022-10-05T02:47:13.885Z,90.57
2022-10-05T02:50:06.125Z,90.85
2022-10-05T02:52:36.960Z,91.48
2022-10-05T02:55:33.217Z,91.44
2022-10-05T02:58:17.066Z,91.70
2022-10-05T03:00:58.040Z,92.52
2022-10-05T03:03:47.080Z,92.64
2022-10-05T03:06:26.005Z,93.02
2022-10-05T03:09:08.555Z,92.94
2022-10-05T03:12:04.957Z,92.70
2022-10-05T03:14:54.368Z,91.92
2022-10-05T03:17:24.133Z,92.84
2022-10-05T03:20:20.932Z,93.38
2022-10-05T03:22:50.940Z,93.10
2022-10-05T03:25:55.309Z,93.18
2022-10-05T03:28:25.882Z,93.05
2022-10-05T03:31:04.267Z,92.87
2022-10-05T03:33:53.206Z,92.48
2022-10-05T03:36:42.514Z,92.42
2022-10-05T03:39:43.325Z,92.48
2022-10-05T03:42:32.852Z,92.65
2022-10-05T03:45:07.590Z,92.38
2022-10-05T03:48:00.442Z,92.61
2022-10-05T03:50:46.441Z,92.22
2022-10-05T03:53:26.396Z,92.43
2022-10-05T03:56:07.560Z,92.30
2022-10-05T03:58:40.164Z,91.87
2022-10-05T04:01:15.487Z,92.20
2022-10-05T04:03:48.949Z,92.44
2022-10-05T04:06:19.181Z,92.17
2022-10-05T04:08:53.633Z,91.67
2022-10-05T04:11:47.372Z,91.19
2022-10-05T04:14:26.939Z,90.82
2022-10-05T04:17:10.111Z,90.14
2022-10-05T04:19:46.260Z,89.62
2022-10-05T04:22:14.589Z,89.71
2022-10-05T04:24:49.987Z,89.33
2022-10-05T04:27:39.424Z,88.81
2022-10-05T04:30:18.140Z,88.62
2022-10-05T04:32:55.044Z,87.66
2022-10-05T04:35:44.181Z,87.40
2022-10-05T04:38:50.117Z,86.98
2022-10-05T04:41:46.993Z,86.22
2022-10-05T04:44:29.183Z,85.38
2022-10-05T04:47:15.153Z,85.25
2022-10-05T04:49:49.088Z,84.79
2022-10-05T04:52:20.229Z,83.98
2022-10-05T04:54:56.732Z,83.49
2022-10-05T04:57:29.049Z,82.68
2022-10-05T05:00:05.727Z,83.21
2022-10-05T05:02:54.855Z,82.98
2022-10-05T05:06:19.289Z,81.91
2022-10-05T05:09:12.100Z,81.64
2022-10-05T05:12:22.050Z,81.69
2022-10-05T05:15:08.363Z,81.99
2022-10-05T05:17:59.704Z,82.29
2022-10-05T05:20:33.294Z,82.91
2022-10-05T05:23:38.117Z,83.34
2022-10-05T05:26:06.086Z,82.28
2022-10-05T05:28:42.833Z,82.24
2022-10-05T05:31:16.017Z,82.16
2022-10-05T05:33:49.697Z,81.56
2022-10-05T05:36:27.647Z,80.74
2022-10-05T05:39:27.151Z,80.67
2022-10-05T05:42:12.201Z,80.27
2022-10-05T05:44:51.458Z,80.09
2022-10-05T05:47:35.487Z,79.60
2022-10-05T05:50:25.696Z,79.32
2022-10-05T05:53:07.393Z,79.61
2022-10-05T05:55:44.238Z,79.34
2022-10-05T05:58:33.095Z,78.97
2022-10-05T06:01:30.698Z,78.83
2022-10-05T06:04:01.821Z,78.09
2022-10-05T06:06:35.844Z,77.22
2022-10-05T06:09:29.987Z,77.21
2022-10-05T06:12:09.832Z,78.52
2022-10-05T06:14:48.369Z,77.50
2022-10-05T06:17:22.593Z,76.58
2022-10-05T06:19:50.965Z,76.59
2022-10-05T06:22:35.018Z,75.36
2022-10-05T06:25:12.798Z,75.89
2022-10-05T06:28:11.369Z,74.73
2022-10-05T06:31:02.411Z,75.38
2022-10-05T06:33:42.353Z,75.27
2022-10-05T06:36:28.418Z,73.72
2022-10-05T06:38:56.216Z,74.27
2022-10-05T06:41:33.072Z,73.37
2022-10-05T06:44:17.312Z,73.32
2022-10-05T06:46:50.829Z,72.68
2022-10-05T06:49:52.178Z,72.23
2022-10-05T06:53:10.940Z,72.53
2022-10-05T06:55:45.151Z,73.80
2022-10-05T06:58:23.753Z,73.05
2022-10-05T07:01:18.603Z,73.26
2022-10-05T07:03:54.604Z,73.25
2022-10-05T07:06:45.929Z,73.71
2022-10-05T07:09:45.915Z,74.03
2022-10-05T07:12:37.151Z,73.95
2022-10-05T07:15:42.338Z,74.93
2022-10-05T07:18:26.640Z,73.63
2022-10-05T07:21:07.533Z,73.33
2022-10-05T07:24:01.505Z,74.15
2022-10-05T07:26:42.949Z,74.47
2022-10-05T07:29:24.715Z,73.51
2022-10-05T07:32:11.499Z,73.24
2022-10-05T07:35:01.571Z,72.11
2022-10-05T07:37:58.045Z,72.49
2022-10-05T07:40:38.231Z,72.97
2022-10-05T07:43:45.255Z,72.03
2022-10-05T07:46:57.010Z,71.39
2022-10-05T07:49:46.041Z,71.31
2022-10-05T07:52:34.552Z,71.66
2022-10-05T07:55:10.619Z,71.28
2022-10-05T07:58:29.863Z,69.78
2022-10-05T08:01:25.203Z,69.45
2022-10-05T08:04:45.316Z,67.31
2022-10-05T08:07:14.025Z,68.90
2022-10-05T08:10:03.452Z,68.19
2022-10-05T08:12:48.690Z,68.23
2022-10-05T08:15:18.683Z,67.94
2022-10-05T08:17:54.738Z,66.53
2022-10-05T08:20:47.490Z,65.96
2022-10-05T08:23:24.173Z,66.37
2022-10-05T08:26:24.182Z,65.92
2022-10-05T08:28:54.549Z,66.06
2022-10-05T08:31:32.330Z,66.50
2022-10-05T08:34:22.254Z,65.58
2022-10-05T08:37:06.015Z,67.16
2022-10-05T08:39:41.097Z,66.49
2022-10-05T08:42:09.986Z,66.99
2022-10-05T08:44:52.618Z,66.79
2022-10-05T08:47:21.961Z,67.92
2022-10-05T08:50:23.338Z,67.86
2022-10-05T08:53:25.601Z,66.67
2022-10-05T08:56:19.109Z,66.96
2022-10-05T08:58:54.003Z,67.07
2022-10-05T09:01:46.953Z,67.22
2022-10-05T09:04:30.261Z,65.56
2022-10-05T09:07:06.981Z,64.32
2022-10-05T09:09:47.356Z,63.95
2022-10-05T09:12:27.142Z,62.90
2022-10-05T09:15:26.802Z,60.95
2022-10-05T09:18:15.142Z,60.37
2022-10-05T09:20:53.392Z,61.34
2022-10-05T09:23:36.067Z,64.17
2022-10-05T09:26:41.819Z,63.99
2022-10-05T09:29:37.237Z,64.32
2022-10-05T09:32:40.109Z,63.68
2022-10-05T09:35:19.768Z,64.48
2022-10-05T09:38:25.061Z,62.98
2022-10-05T09:41:11.879Z,62.64
2022-10-05T09:43:59.363Z,60.19
2022-10-05T09:46:46.240Z,57.76
2022-10-05T09:49:19.913Z,59.11
2022-10-05T09:52:00.508Z,59.24
2022-10-05T09:54:43.818Z,58.87
2022-10-05T09:57:39.550Z,59.84
2022-10-05T10:00:40.999Z,60.76
2022-10-05T10:03:46.250Z,62.16
2022-10-05T10:06:19.764Z,62.47
2022-10-05T10:09:08.356Z,61.52
2022-10-05T10:11:41.811Z,60.58
2022-10-05T10:14:34.197Z,60.18
2022-10-05T10:17:20.044Z,58.53
2022-10-05T10:20:19.967Z,58.95
2022-10-05T10:23:10.175Z,59.20
2022-10-05T10:26:18.536Z,59.82
2022-10-05T10:29:01.215Z,60.95
2022-10-05T10:31:38.093Z,60.49
2022-10-05T10:34:41.019Z,62.48
2022-10-05T10:37:24.261Z,60.44
2022-10-05T10:39:55.726Z,60.28
2022-10-05T10:42:41.513Z,57.35
2022-10-05T10:45:08.997Z,55.78
2022-10-05T10:48:02.212Z,57.22
2022-10-05T10:50:57.723Z,55.27
2022-10-05T10:54:03.774Z,54.24
2022-10-05T10:56:58.696Z,54.11
2022-10-05T10:59:57.389Z,54.47
2022-10-05T11:02:31.932Z,54.60
2022-10-05T11:05:23.041Z,55.46
2022-10-05T11:08:03.036Z,55.75
2022-10-05T11:11:04.925Z,57.37
2022-10-05T11:14:21.208Z,58.80
2022-10-05T11:17:11.006Z,57.89
2022-10-05T11:20:04.839Z,58.56
2022-10-05T11:22:51.909Z,58.37
2022-10-05T11:25:44.590Z,58.03
2022-10-05T11:28:27.686Z,57.57
2022-10-05T11:31:20.647Z,57.25
2022-10-05T11:34:17.351Z,56.96
2022-10-05T11:36:44.918Z,56.29
2022-10-05T11:39:23.503Z,56.35
2022-10-05T11:42:06.787Z,54.87
2022-10-05T11:47:57.222Z,54.55
2022-10-05T11:50:42.680Z,54.54
2022-10-05T11:53:27.296Z,54.46
2022-10-05T11:56:13.706Z,55.21
2022-10-05T11:58:58.085Z,56.11
2022-10-05T12:01:30.544Z,54.86
2022-10-05T12:04:16.791Z,55.83
2022-10-05T12:06:51.086Z,52.91
2022-10-05T12:10:01.862Z,52.53
2022-10-05T12:12:31.522Z,52.89
2022-10-05T12:15:14.062Z,50.74
2022-10-05T12:17:51.298Z,52.07
2022-10-05T12:20:18.868Z,51.47
2022-10-05T12:22:54.577Z,50.83
2022-10-05T12:25:26.332Z,50.92
2022-10-05T12:27:56.844Z,50.17
2022-10-05T12:30:49.180Z,50.48
2022-10-05T12:33:43.953Z,50.31
2022-10-05T12:36:15.485Z,51.88
2022-10-05T12:39:05.214Z,51.77
2022-10-05T12:41:53.961Z,52.00
2022-10-05T12:44:42.263Z,53.12
2022-10-05T12:47:35.395Z,52.42
2022-10-05T12:50:28.492Z,51.53
2022-10-05T12:53:02.314Z,50.95
2022-10-05T12:55:54.815Z,51.08
2022-10-05T12:58:28.980Z,52.06
2022-10-05T13:01:25.358Z,53.32
2022-10-05T13:04:01.157Z,53.68
2022-10-05T13:06:53.370Z,54.56
2022-10-05T13:10:03.715Z,54.08
2022-10-05T13:12:41.334Z,54.46
2022-10-05T13:15:47.876Z,54.18
2022-10-05T13:18:21.777Z,54.00
2022-10-05T13:21:26.777Z,54.65
2022-10-05T13:24:15.169Z,55.50
2022-10-05T13:26:45.901Z,55.29
2022-10-05T13:29:31.781Z,55.00
2022-10-05T13:32:18.252Z,54.85
2022-10-05T13:34:52.701Z,54.79
2022-10-05T13:37:32.688Z,55.80
2022-10-05T13:40:37.188Z,56.51
2022-10-05T13:43:44.071Z,57.01
2022-10-05T13:46:33.532Z,57.85
2022-10-05T13:49:22.005Z,57.66
2022-10-05T13:52:04.422Z,58.00
2022-10-05T13:55:09.433Z,57.82
2022-10-05T13:58:09.428Z,58.69
2022-10-05T14:01:34.050Z,59.16
2022-10-05T14:04:50.960Z,59.81
2022-10-05T14:07:38.323Z,59.84
2022-10-05T14:10:13.403Z,59.82
2022-10-05T14:12:43.646Z,60.11
2022-10-05T14:15:30.636Z,61.09
2022-10-05T14:17:58.403Z,61.39
2022-10-05T14:20:31.682Z,61.82
2022-10-05T14:23:03.842Z,62.31
2022-10-05T14:25:32.176Z,62.95
2022-10-05T14:28:03.979Z,63.25
2022-10-05T14:30:32.361Z,62.50
2022-10-05T14:33:05.721Z,61.19
2022-10-05T14:35:50.625Z,60.67
2022-10-05T14:38:29.868Z,59.70
2022-10-05T14:41:17.727Z,60.76
2022-10-05T14:44:06.318Z,60.94
2022-10-05T14:46:35.596Z,60.84
2022-10-05T14:49:22.942Z,60.70
2022-10-05T14:51:51.346Z,59.67
2022-10-05T14:54:34.262Z,59.50
2022-10-05T14:57:23.324Z,59.59
2022-10-05T15:00:12.948Z,59.64
2022-10-05T15:02:51.821Z,60.53
2022-10-05T15:05:31.382Z,59.89
2022-10-05T15:08:08.950Z,60.47
2022-10-05T15:10:37.653Z,60.89
2022-10-05T15:13:11.627Z,61.06
2022-10-05T15:15:54.880Z,61.52
2022-10-05T15:18:32.139Z,62.18
2022-10-05T15:21:06.439Z,62.47
2022-10-05T15:23:47.562Z,63.07
2022-10-05T15:26:37.264Z,63.36
2022-10-05T15:29:26.192Z,63.99
2022-10-05T15:32:15.587Z,64.19
2022-10-05T15:35:08.515Z,64.85
2022-10-05T15:37:42.253Z,65.25
2022-10-05T15:40:43.130Z,65.12
2022-10-05T15:43:13.961Z,65.55
2022-10-05T15:46:14.163Z,66.33
2022-10-05T15:48:54.638Z,66.94
2022-10-05T15:51:36.549Z,67.89
2022-10-05T15:54:40.990Z,68.21
2022-10-05T15:57:18.240Z,68.62
2022-10-05T15:59:55.812Z,69.08
2022-10-05T16:02:33.382Z,69.32
2022-10-05T16:05:06.237Z,70.47
2022-10-05T16:07:59.676Z,70.39
2022-10-05T16:10:34.124Z,70.24
2022-10-05T16:13:07.513Z,71.03
2022-10-05T16:15:48.745Z,72.96
2022-10-05T16:18:40.937Z,73.21
2022-10-05T16:21:32.417Z,73.62
2022-10-05T16:24:06.444Z,75.46
2022-10-05T16:26:53.796Z,77.10
2022-10-05T16:29:40.465Z,78.00
2022-10-05T16:32:37.229Z,77.84
2022-10-05T16:35:17.097Z,77.82
2022-10-05T16:38:22.488Z,77.08
2022-10-05T16:41:02.892Z,76.89
2022-10-05T16:43:40.432Z,76.30
2022-10-05T16:46:27.881Z,76.12
2022-10-05T16:49:04.467Z,75.67
2022-10-05T16:51:39.507Z,75.07
2022-10-05T16:54:15.372Z,74.70
2022-10-05T16:56:48.446Z,75.22
2022-10-05T16:59:53.600Z,75.18
2022-10-05T17:02:55.492Z,75.57
2022-10-05T17:06:04.784Z,75.80
2022-10-05T17:08:36.805Z,75.97
2022-10-05T17:11:25.775Z,76.15
2022-10-05T17:14:16.091Z,76.68
2022-10-05T17:16:55.828Z,76.58
2022-10-05T17:19:46.756Z,77.35
2022-10-05T17:22:40.040Z,77.67
2022-10-05T17:25:25.264Z,78.47
2022-10-05T17:27:54.829Z,78.54
2022-10-05T17:30:48.634Z,78.18
2022-10-05T17:33:27.640Z,78.57
2022-10-05T17:36:04.727Z,78.03
2022-10-05T17:38:34.280Z,78.67
2022-10-05T17:41:20.477Z,79.23
2022-10-05T17:44:07.184Z,78.57
2022-10-05T17:46:48.667Z,79.67
2022-10-05T17:49:22.176Z,79.26
2022-10-05T17:52:11.458Z,79.22
2022-10-05T17:55:03.851Z,79.45
2022-10-05T17:57:32.093Z,80.00
2022-10-05T18:00:02.776Z,79.58
2022-10-05T18:02:36.679Z,79.48
2022-10-05T18:05:12.806Z,79.42
2022-10-05T18:07:42.157Z,79.70
2022-10-05T18:10:09.631Z,79.78
2022-10-05T18:12:38.809Z,79.89
2022-10-05T18:15:06.526Z,80.48
2022-10-05T18:17:47.831Z,80.31
2022-10-05T18:20:28.842Z,79.52
2022-10-05T18:23:09.715Z,78.95
2022-10-05T18:26:20.492Z,79.11
2022-10-05T18:29:13.914Z,79.23
2022-10-05T18:31:46.746Z,78.96
2022-10-05T18:34:17.211Z,79.07
2022-10-05T18:37:18.276Z,78.47
2022-10-05T18:39:51.999Z,78.30
2022-10-05T18:42:25.578Z,78.19
2022-10-05T18:45:17.077Z,78.53
2022-10-05T18:48:03.233Z,79.02
2022-10-05T18:51:01.004Z,78.98
2022-10-05T18:53:51.145Z,78.75
2022-10-05T18:56:35.713Z,78.53
2022-10-05T18:59:24.273Z,78.87
2022-10-05T19:02:07.281Z,78.49
2022-10-05T19:04:57.181Z,78.06
2022-10-05T19:07:28.160Z,78.06
2022-10-05T19:10:05.050Z,77.95
2022-10-05T19:12:43.395Z,77.89
2022-10-05T19:15:29.371Z,78.65
2022-10-05T19:18:34.314Z,79.44
2022-10-05T19:21:10.976Z,79.15
2022-10-05T19:23:57.700Z,80.22
2022-10-05T19:26:40.646Z,81.14
2022-10-05T19:29:30.484Z,80.86
2022-10-05T19:32:18.738Z,80.71
2022-10-05T19:35:07.536Z,80.17
2022-10-05T19:37:37.972Z,80.04
2022-10-05T19:40:36.721Z,80.08
2022-10-05T19:43:38.365Z,80.11
2022-10-05T19:46:27.967Z,81.01
2022-10-05T19:48:55.677Z,81.42
2022-10-05T19:51:34.657Z,83.35
2022-10-05T19:54:12.996Z,82.97
2022-10-05T19:56:51.183Z,82.72
2022-10-05T19:59:25.261Z,83.27
2022-10-05T20:01:55.536Z,84.20
2022-10-05T20:04:34.249Z,84.30
2022-10-05T20:07:02.542Z,84.66
2022-10-05T20:09:30.322Z,85.21
2022-10-05T20:11:58.169Z,85.79
2022-10-05T20:14:31.052Z,87.22
2022-10-05T20:17:47.584Z,87.18
2022-10-05T20:20:45.765Z,88.05
2022-10-05T20:23:24.152Z,88.46
2022-10-05T20:26:11.301Z,88.72
2022-10-05T20:28:39.217Z,88.97
2022-10-05T20:31:08.202Z,89.42
2022-10-05T20:33:36.016Z,89.97
2022-10-05T20:36:04.271Z,89.95
2022-10-05T20:38:35.174Z,90.19
2022-10-05T20:41:05.245Z,91.38
2022-10-05T20:43:32.897Z,91.69
2022-10-05T20:46:00.668Z,91.67
2022-10-05T20:48:28.564Z,92.31
2022-10-05T20:50:56.508Z,93.50
2022-10-05T20:53:24.168Z,93.34
2022-10-05T20:55:52.099Z,93.26
2022-10-05T20:58:19.988Z,93.64
2022-10-05T21:01:06.342Z,95.03
2022-10-05T21:03:35.520Z,94.07
2022-10-05T21:06:05.514Z,94.58
2022-10-05T21:08:37.028Z,94.34
2022-10-05T21:11:11.183Z,94.69
2022-10-05T21:13:42.688Z,94.13
2022-10-05T21:16:14.324Z,94.73
2022-10-05T21:18:44.589Z,94.06
2022-10-05T21:21:12.840Z,93.88
2022-10-05T21:23:40.727Z,93.54
2022-10-05T21:26:08.384Z,93.38
2022-10-05T21:28:36.106Z,93.31
2022-10-05T21:31:07.017Z,93.05
2022-10-05T21:33:37.495Z,93.30
2022-10-05T21:36:05.362Z,93.07
2022-10-05T21:38:33.196Z,92.97
2022-10-05T21:41:01.012Z,92.12
2022-10-05T21:43:28.920Z,91.47
2022-10-05T21:45:57.118Z,91.09
2022-10-05T21:48:25.255Z,90.43
2022-10-05T21:50:53.265Z,90.22
2022-10-05T21:53:22.277Z,90.34
2022-10-05T21:55:50.328Z,89.97
2022-10-05T21:58:20.481Z,89.92
2022-10-05T22:00:48.284Z,89.97
2022-10-05T22:03:15.885Z,90.20
2022-10-05T22:05:43.501Z,90.78
2022-10-05T22:08:29.204Z,90.61
2022-10-05T22:10:57.443Z,91.86
2022-10-05T22:13:26.257Z,91.54
2022-10-05T22:15:55.631Z,90.87
2022-10-05T22:18:24.693Z,89.96
2022-10-05T22:20:53.384Z,89.28
2022-10-05T22:23:21.043Z,89.09
2022-10-05T22:25:48.806Z,89.97
2022-10-05T22:28:16.610Z,89.03
2022-10-05T22:30:44.813Z,88.64
2022-10-05T22:33:13.416Z,88.94
2022-10-05T22:35:41.484Z,88.89
2022-10-05T22:38:09.053Z,89.12
2022-10-05T22:40:36.911Z,89.17
2022-10-05T22:43:05.384Z,89.43
2022-10-05T22:45:33.298Z,89.95
2022-10-05T22:48:01.102Z,89.88
2022-10-05T22:50:29.094Z,90.85
2022-10-05T22:52:57.564Z,90.74
2022-10-05T22:55:25.381Z,90.66
2022-10-05T22:57:53.122Z,90.47
2022-10-05T23:00:27.541Z,90.70
2022-10-05T23:02:58.837Z,90.88
2022-10-05T23:05:27.292Z,91.47
2022-10-05T23:07:56.469Z,91.77
2022-10-05T23:10:24.589Z,92.06
2022-10-05T23:13:00.484Z,92.86
2022-10-05T23:15:28.838Z,92.96
2022-10-05T23:18:00.597Z,93.82
2022-10-05T23:20:28.256Z,93.76
2022-10-05T23:22:55.912Z,94.48
2022-10-05T23:25:23.657Z,94.62
2022-10-05T23:27:51.735Z,94.72
2022-10-05T23:30:19.517Z,96.36
2022-10-05T23:32:48.305Z,96.16
2022-10-05T23:35:15.972Z,96.25
2022-10-05T23:37:44.332Z,95.58
2022-10-05T23:40:13.743Z,96.27
2022-10-05T23:42:41.514Z,96.41
2022-10-05T23:45:10.643Z,96.65
2022-10-05T23:47:39.902Z,97.00
2022-10-05T23:50:07.996Z,97.43
2022-10-05T23:52:36.321Z,96.88
2022-10-05T23:55:05.007Z,96.82
2022-10-05T23:57:32.993Z,97.12
